Terminal Aerodrome Forecast
Issued by NWS

Home | Current Version | Previous Version | Text Only | Print | Product List | Glossary On
Versions: 1 2 3 4 5 6 7 8 9 10 11 12 13 14 15 16 17 18 19 20 21 22 23 24 25 26 27 28 29 30 31 32 33 34 35 36 37 38 39 40 41 42 43 44 45 46 47 48 49 50
000
FTAK31 PANC 230905 AAA
TAFASN
TAF AMD
PASN 230905Z 2309/2406 19015KT P6SM SCT030 SCT120
     FM231200 17018KT 2SM -RASN BR BKN008 OVC015
     FM231800 19015KT 3SM -RASN BR BKN012 OVC020
     FM240200 18013KT 4SM -SHRA SCT015 BKN025=

USA.gov is the U.S. government's official web portal to all federal, state and local government web resources and services.